Time;durP1;ratioP1;P1;durP2;ratioP2;P2;SDS_P1;SDS_P2;PMS_P1;PMS_P2;Temp;Humidity;BMP_temperature;BMP_pressure;BME280_temperature;BME280_humidity;BME280_pressure;Samples;Min_cycle;Max_cycle;Signal;HPM_P1;HPM_P2
2022/04/25 00:00:31;;;;;;;18.80;15.13;;;9.50;99.90;;;;;;4745559;28;9999720;-74
2022/04/25 00:02:58;;;;;;;17.58;14.88;;;9.60;99.90;;;;;;5088373;28;20081;-74
2022/04/25 00:05:23;;;;;;;15.88;14.18;;;9.50;99.90;;;;;;5088183;28;20024;-74
2022/04/25 00:07:49;;;;;;;17.00;14.52;;;9.50;99.90;;;;;;5095875;28;20039;-74
2022/04/25 00:10:15;;;;;;;17.88;14.50;;;9.50;99.90;;;;;;5098735;28;20024;-74
2022/04/25 00:12:40;;;;;;;16.70;13.82;;;9.40;99.90;;;;;;5094084;28;20035;-74
2022/04/25 00:15:07;;;;;;;17.63;14.13;;;9.40;99.90;;;;;;5092141;28;20029;-74
2022/04/25 00:17:33;;;;;;;17.80;13.57;;;9.40;99.90;;;;;;5096874;28;20482;-74
2022/04/25 00:19:58;;;;;;;19.45;13.75;;;9.40;99.90;;;;;;5102163;28;20046;-74
2022/04/25 00:22:24;;;;;;;15.98;13.65;;;9.40;99.90;;;;;;5092489;28;20167;-74
2022/04/25 00:24:50;;;;;;;19.73;13.93;;;9.40;99.90;;;;;;5088097;28;20368;-74
2022/04/25 00:27:16;;;;;;;16.30;13.88;;;9.40;99.90;;;;;;5098549;28;20020;-74
2022/04/25 00:29:42;;;;;;;16.00;13.38;;;9.40;99.90;;;;;;5105681;28;20031;-75
2022/04/25 00:32:08;;;;;;;15.95;13.70;;;9.40;99.90;;;;;;5090105;28;20047;-74
2022/04/25 00:34:34;;;;;;;18.00;13.60;;;9.30;99.90;;;;;;5096563;28;20514;-75
2022/04/25 00:37:00;;;;;;;17.48;13.48;;;9.40;99.90;;;;;;5098171;28;20031;-75
2022/04/25 00:39:26;;;;;;;15.75;13.13;;;9.30;99.90;;;;;;5089046;28;20576;-75
2022/04/25 00:41:51;;;;;;;16.98;13.43;;;9.40;99.90;;;;;;5092413;28;20377;-74
2022/04/25 00:44:17;;;;;;;17.92;13.20;;;9.40;99.90;;;;;;5086637;28;20040;-75
2022/04/25 00:46:44;;;;;;;20.17;13.20;;;9.40;99.90;;;;;;5097110;28;20028;-74
2022/04/25 00:49:09;;;;;;;15.73;12.30;;;9.40;99.90;;;;;;5090858;28;20032;-73
2022/04/25 00:51:35;;;;;;;14.27;11.48;;;9.50;99.90;;;;;;5088012;28;20507;-74
2022/04/25 00:54:01;;;;;;;13.02;11.15;;;9.50;99.90;;;;;;5087645;28;20039;-74
2022/04/25 00:56:26;;;;;;;14.85;11.38;;;9.60;99.90;;;;;;5092545;28;20028;-74
2022/04/25 00:58:52;;;;;;;13.60;10.85;;;9.60;99.90;;;;;;5101205;28;20032;-74
2022/04/25 01:01:18;;;;;;;12.77;10.43;;;9.60;99.90;;;;;;5103327;28;20028;-74
2022/04/25 01:03:44;;;;;;;13.60;11.07;;;9.70;99.90;;;;;;5091244;28;20088;-74
2022/04/25 01:06:11;;;;;;;12.30;10.27;;;9.60;99.90;;;;;;5090470;28;20023;-74
2022/04/25 01:08:37;;;;;;;14.43;10.32;;;9.60;99.90;;;;;;5090141;28;20426;-74
2022/04/25 01:11:04;;;;;;;13.20;10.55;;;9.60;99.90;;;;;;5088640;28;20032;-74
2022/04/25 01:13:31;;;;;;;15.25;10.23;;;9.70;99.90;;;;;;5091543;28;20050;-74
2022/04/25 01:15:56;;;;;;;11.50;10.25;;;9.60;99.90;;;;;;5096209;28;20024;-74
2022/04/25 01:18:22;;;;;;;13.10;10.30;;;9.60;99.90;;;;;;5093756;28;20039;-75
2022/04/25 01:20:51;;;;;;;13.63;10.15;;;9.60;99.90;;;;;;5102595;28;20099;-75
2022/04/25 01:28:51;;;;;;;13.15;10.35;;;9.60;99.90;;;;;;5098907;28;20039;-75
2022/04/25 01:31:17;;;;;;;12.73;10.05;;;9.60;99.90;;;;;;5100889;28;20067;-75
2022/04/25 01:33:42;;;;;;;11.45;9.88;;;9.50;99.90;;;;;;5095737;28;20070;-75
2022/04/25 01:36:08;;;;;;;13.98;9.93;;;9.50;99.90;;;;;;5094744;28;20020;-75
2022/04/25 01:38:34;;;;;;;12.65;9.90;;;9.50;99.90;;;;;;5088390;28;20024;-76
2022/04/25 01:40:59;;;;;;;10.82;9.25;;;9.50;99.90;;;;;;5095606;28;20032;-75
2022/04/25 01:43:25;;;;;;;12.73;9.43;;;9.50;99.90;;;;;;5104294;28;20760;-75
2022/04/25 01:45:51;;;;;;;12.65;9.00;;;9.50;99.90;;;;;;5098869;28;20023;-75
2022/04/25 01:48:17;;;;;;;11.88;9.75;;;9.50;99.90;;;;;;5089693;28;20036;-75
2022/04/25 01:50:43;;;;;;;10.40;9.30;;;9.50;99.90;;;;;;5088767;28;20616;-75
2022/04/25 01:53:08;;;;;;;10.40;8.93;;;9.40;99.90;;;;;;5094386;28;20027;-75
2022/04/25 01:55:34;;;;;;;11.57;9.30;;;9.30;99.90;;;;;;5094375;28;20020;-76
2022/04/25 01:58:00;;;;;;;11.43;9.38;;;9.20;99.90;;;;;;5090597;28;20024;-76
2022/04/25 02:00:26;;;;;;;13.85;9.45;;;9.20;99.90;;;;;;5089470;28;20475;-76
2022/04/25 02:02:51;;;;;;;10.18;8.52;;;9.20;99.90;;;;;;5099084;28;20039;-76
2022/04/25 02:05:17;;;;;;;10.15;9.05;;;9.10;99.90;;;;;;5091667;28;20039;-76
2022/04/25 02:07:42;;;;;;;16.17;9.85;;;9.10;99.90;;;;;;5095401;28;20024;-76
2022/04/25 02:10:08;;;;;;;10.52;9.32;;;9.10;99.90;;;;;;5094575;28;20028;-76
2022/04/25 02:12:34;;;;;;;10.15;8.45;;;9.10;99.90;;;;;;5092255;28;20399;-76
2022/04/25 02:15:00;;;;;;;12.25;8.80;;;9.10;99.90;;;;;;5090756;28;20036;-76
2022/04/25 02:17:26;;;;;;;10.15;8.32;;;9.20;99.90;;;;;;5091653;28;20038;-76
2022/04/25 02:19:52;;;;;;;11.27;8.90;;;9.20;99.90;;;;;;5087053;28;20028;-76
2022/04/25 02:22:17;;;;;;;11.45;8.30;;;9.30;99.90;;;;;;5091257;28;20027;-76
2022/04/25 02:24:43;;;;;;;9.57;8.15;;;9.30;99.90;;;;;;5095063;28;20405;-75
2022/04/25 02:27:09;;;;;;;8.85;7.88;;;9.30;99.90;;;;;;5091408;28;20301;-75
2022/04/25 02:29:40;;;;;;;11.65;7.68;;;9.30;99.90;;;;;;5097904;28;20170;-75
2022/04/25 02:32:07;;;;;;;11.45;7.55;;;9.30;99.90;;;;;;5086061;28;20102;-75
2022/04/25 02:34:33;;;;;;;12.77;7.80;;;9.30;99.90;;;;;;5092788;28;20031;-75
2022/04/25 02:36:58;;;;;;;10.50;7.35;;;9.30;99.90;;;;;;5087869;28;20252;-75
2022/04/25 02:39:25;;;;;;;7.65;6.80;;;9.30;99.90;;;;;;5093322;28;20031;-75
2022/04/25 02:41:51;;;;;;;8.70;7.05;;;9.20;99.90;;;;;;5094490;28;20027;-75
2022/04/25 02:44:20;;;;;;;9.13;7.35;;;9.30;99.90;;;;;;5088404;28;20028;-75
2022/04/25 02:46:45;;;;;;;8.52;6.88;;;9.30;99.90;;;;;;5095604;28;20032;-76
2022/04/25 02:49:11;;;;;;;8.50;6.65;;;9.20;99.90;;;;;;5084373;28;20388;-76
2022/04/25 02:51:37;;;;;;;7.57;6.68;;;9.20;99.90;;;;;;5096508;28;20043;-75
2022/04/25 02:54:03;;;;;;;8.20;6.82;;;9.20;99.90;;;;;;5093394;28;20036;-76
2022/04/25 02:56:28;;;;;;;11.65;6.88;;;9.20;99.90;;;;;;5092768;28;20027;-75
2022/04/25 02:58:54;;;;;;;13.80;7.05;;;9.10;99.90;;;;;;5084848;28;20324;-75
2022/04/25 03:01:20;;;;;;;10.35;6.95;;;9.10;99.90;;;;;;5095617;28;20487;-76
2022/04/25 03:03:45;;;;;;;9.60;6.80;;;9.10;99.90;;;;;;5094233;28;20028;-76
2022/04/25 03:06:11;;;;;;;9.85;6.78;;;9.10;99.90;;;;;;5090475;28;20115;-75
2022/04/25 03:08:38;;;;;;;10.35;6.82;;;9.10;99.90;;;;;;5086800;28;20050;-76
2022/04/25 03:11:06;;;;;;;11.13;7.45;;;9.10;99.90;;;;;;5094425;28;20046;-76
2022/04/25 03:13:34;;;;;;;8.80;6.90;;;9.10;99.90;;;;;;5094028;28;20031;-76
2022/04/25 03:16:01;;;;;;;10.30;8.05;;;9.10;99.90;;;;;;5087707;28;20154;-76
2022/04/25 03:18:27;;;;;;;10.70;7.85;;;9.10;99.90;;;;;;5095736;28;20233;-75
2022/04/25 03:20:52;;;;;;;12.60;8.40;;;9.10;99.90;;;;;;5087214;28;20035;-75
2022/04/25 03:23:20;;;;;;;12.10;7.80;;;9.00;99.90;;;;;;5101150;28;20459;-75
2022/04/25 03:25:46;;;;;;;11.32;8.20;;;9.00;99.90;;;;;;5098565;28;20077;-75
2022/04/25 03:28:12;;;;;;;12.85;8.95;;;9.00;99.90;;;;;;5095959;28;20557;-75
2022/04/25 03:30:38;;;;;;;12.80;8.70;;;9.00;99.90;;;;;;5093522;28;20062;-75
2022/04/25 03:33:04;;;;;;;12.02;8.75;;;9.00;99.90;;;;;;5104123;28;20047;-75
2022/04/25 03:35:30;;;;;;;13.68;9.38;;;9.00;99.90;;;;;;5086421;28;20028;-75
2022/04/25 03:37:57;;;;;;;12.50;9.50;;;9.00;99.90;;;;;;5097819;28;20034;-75
2022/04/25 03:40:24;;;;;;;13.00;9.18;;;9.00;99.90;;;;;;5093404;28;20036;-75
2022/04/25 03:42:50;;;;;;;13.35;8.60;;;9.00;99.90;;;;;;5096137;28;20370;-75
2022/04/25 03:45:18;;;;;;;16.45;9.52;;;9.00;99.90;;;;;;5095679;28;20584;-75
2022/04/25 03:47:45;;;;;;;15.43;10.10;;;9.00;99.90;;;;;;5095187;28;20054;-75
2022/04/25 03:50:12;;;;;;;13.02;9.25;;;9.00;99.90;;;;;;5090328;28;20050;-75
2022/04/25 03:52:39;;;;;;;13.75;10.07;;;9.00;99.90;;;;;;5092194;28;20020;-75
2022/04/25 03:57:55;;;;;;;14.35;10.27;;;9.00;99.90;;;;;;5097197;28;20111;-75
2022/04/25 04:00:21;;;;;;;16.85;10.70;;;9.10;99.90;;;;;;5097485;28;20543;-75
2022/04/25 04:02:46;;;;;;;15.18;10.85;;;9.10;99.90;;;;;;5089774;28;20591;-75
2022/04/25 04:05:12;;;;;;;16.23;11.63;;;9.10;99.90;;;;;;5089209;28;20158;-75
2022/04/25 04:07:39;;;;;;;18.60;10.90;;;9.00;99.90;;;;;;5090849;28;20077;-75
2022/04/25 04:10:05;;;;;;;17.67;11.75;;;9.00;99.90;;;;;;5101374;28;20066;-75
2022/04/25 04:12:32;;;;;;;14.02;11.32;;;9.00;99.90;;;;;;5097434;28;20020;-75
2022/04/25 04:14:58;;;;;;;21.40;12.32;;;9.00;99.90;;;;;;5091903;28;20016;-75
2022/04/25 04:17:24;;;;;;;16.80;12.30;;;9.00;99.90;;;;;;5099702;28;20058;-75
2022/04/25 04:19:53;;;;;;;20.00;12.32;;;9.00;99.90;;;;;;5098925;28;20028;-75
2022/04/25 04:22:21;;;;;;;20.40;12.05;;;9.00;99.90;;;;;;4380849;28;10000971;-75
2022/04/25 04:24:47;;;;;;;17.23;12.70;;;9.00;99.90;;;;;;5050028;28;20059;-75
2022/04/25 04:27:14;;;;;;;22.20;12.95;;;9.00;99.90;;;;;;5043610;28;20500;-74
2022/04/25 04:29:40;;;;;;;18.88;12.82;;;9.00;99.90;;;;;;5047782;28;20033;-74
2022/04/25 04:32:07;;;;;;;18.98;12.75;;;9.00;99.90;;;;;;5044673;28;20033;-73
2022/04/25 04:34:36;;;;;;;18.08;12.90;;;9.00;99.90;;;;;;5044153;28;20271;-74
2022/04/25 04:37:03;;;;;;;20.33;14.10;;;8.90;99.90;;;;;;5055616;28;20061;-73
2022/04/25 04:39:31;;;;;;;22.30;14.02;;;8.90;99.90;;;;;;5054177;28;20233;-74
2022/04/25 04:41:56;;;;;;;24.38;15.50;;;8.90;99.90;;;;;;5044048;28;20241;-74
2022/04/25 04:44:22;;;;;;;21.05;15.90;;;8.90;99.90;;;;;;5046587;28;20083;-74
2022/04/25 04:46:48;;;;;;;26.40;16.75;;;8.80;99.90;;;;;;5054470;28;20029;-74
2022/04/25 04:49:14;;;;;;;26.20;16.30;;;8.80;99.90;;;;;;5051635;28;20106;-73
2022/04/25 04:51:39;;;;;;;25.70;16.88;;;8.80;99.90;;;;;;5049369;28;20020;-73
2022/04/25 04:54:05;;;;;;;23.42;15.82;;;8.80;99.90;;;;;;5050555;28;20175;-73
2022/04/25 04:56:32;;;;;;;28.80;17.20;;;8.80;99.90;;;;;;5100108;28;20055;-73
2022/04/25 04:58:58;;;;;;;24.77;16.08;;;8.80;99.90;;;;;;5103219;28;20115;-73
2022/04/25 05:01:23;;;;;;;27.83;15.88;;;8.80;99.90;;;;;;5084995;28;20028;-72
2022/04/25 05:03:50;;;;;;;22.85;16.10;;;8.70;99.90;;;;;;5094830;28;20043;-72
2022/04/25 05:06:15;;;;;;;27.08;16.08;;;8.70;99.90;;;;;;5080931;28;20560;-73
2022/04/25 05:08:41;;;;;;;24.02;15.32;;;8.70;99.90;;;;;;5089404;28;20154;-73
2022/04/25 05:11:11;;;;;;;24.98;16.10;;;8.70;99.90;;;;;;5089218;28;20058;-72
2022/04/25 05:13:37;;;;;;;27.85;16.58;;;8.70;99.90;;;;;;5090228;28;20027;-73
2022/04/25 05:16:06;;;;;;;27.05;16.50;;;8.60;99.90;;;;;;5093215;28;20031;-73
2022/04/25 05:18:33;;;;;;;30.15;17.17;;;8.70;99.90;;;;;;5093569;28;20389;-74
2022/04/25 05:21:02;;;;;;;23.08;15.68;;;8.70;99.90;;;;;;5095544;28;20019;-74
2022/04/25 05:23:29;;;;;;;30.17;17.65;;;8.60;99.90;;;;;;5095251;28;20024;-73
2022/04/25 05:25:54;;;;;;;26.60;16.88;;;8.60;99.90;;;;;;5100658;28;20027;-72
2022/04/25 05:28:25;;;;;;;31.52;17.90;;;8.60;99.90;;;;;;5089245;28;20035;-71
2022/04/25 05:30:51;;;;;;;32.20;17.98;;;8.60;99.90;;;;;;5098982;28;20565;-71
2022/04/25 05:33:18;;;;;;;34.28;18.45;;;8.60;99.90;;;;;;5092985;28;20480;-71
2022/04/25 05:35:45;;;;;;;28.52;18.38;;;8.50;99.90;;;;;;5086149;28;20028;-71
2022/04/25 05:38:11;;;;;;;30.52;19.35;;;8.50;99.90;;;;;;5101799;28;20023;-73
2022/04/25 05:40:39;;;;;;;29.63;18.83;;;8.50;99.90;;;;;;5107401;28;20038;-72
2022/04/25 05:43:05;;;;;;;30.20;19.85;;;8.50;99.90;;;;;;5095888;28;20388;-73
2022/04/25 05:45:31;;;;;;;33.20;20.20;;;8.50;99.90;;;;;;5092040;28;20051;-71
2022/04/25 05:47:57;;;;;;;29.65;19.10;;;8.50;99.90;;;;;;5093095;28;20298;-72
2022/04/25 05:53:12;;;;;;;28.88;19.50;;;8.50;99.90;;;;;;5096602;28;20046;-73
2022/04/25 05:55:39;;;;;;;31.92;19.75;;;8.60;99.90;;;;;;5087711;28;20020;-73
2022/04/25 05:58:06;;;;;;;34.17;19.52;;;8.50;99.90;;;;;;5095203;28;20391;-72
2022/04/25 06:00:33;;;;;;;33.53;19.67;;;8.60;99.90;;;;;;5091796;28;20092;-73
2022/04/25 06:03:00;;;;;;;29.73;18.70;;;8.60;99.90;;;;;;5087152;28;20423;-72
2022/04/25 06:05:25;;;;;;;32.80;19.42;;;8.50;99.90;;;;;;5092615;28;20081;-73
2022/04/25 06:07:51;;;;;;;29.02;19.17;;;8.50;99.90;;;;;;5089391;28;20261;-73
2022/04/25 06:10:19;;;;;;;31.00;19.55;;;8.50;99.90;;;;;;5085909;28;20030;-73
2022/04/25 06:12:50;;;;;;;31.60;19.45;;;8.60;99.90;;;;;;5099505;28;20661;-73
2022/04/25 06:15:18;;;;;;;29.08;19.58;;;8.60;99.90;;;;;;5084416;28;20027;-73
2022/04/25 06:17:43;;;;;;;30.23;19.35;;;8.60;99.90;;;;;;5084748;28;20067;-73
2022/04/25 06:20:10;;;;;;;30.80;20.52;;;8.60;99.90;;;;;;5090299;28;20480;-73
2022/04/25 06:22:37;;;;;;;31.13;20.17;;;8.60;99.90;;;;;;5088036;28;20039;-73
2022/04/25 06:25:04;;;;;;;28.88;20.08;;;8.60;99.90;;;;;;5085219;28;20475;-73
2022/04/25 06:27:30;;;;;;;31.67;20.73;;;8.60;99.90;;;;;;5092305;28;20028;-73
2022/04/25 06:29:56;;;;;;;31.60;19.98;;;8.60;99.90;;;;;;5088915;28;20025;-74
2022/04/25 06:32:23;;;;;;;31.20;20.67;;;8.60;99.90;;;;;;5078876;28;20051;-72
2022/04/25 06:34:49;;;;;;;31.77;20.33;;;8.70;99.90;;;;;;5084162;28;20044;-72
2022/04/25 06:37:15;;;;;;;30.95;20.52;;;8.70;99.90;;;;;;5094454;28;20075;-72
2022/04/25 06:39:41;;;;;;;33.28;20.10;;;8.70;99.90;;;;;;5088067;28;20247;-71
2022/04/25 06:42:10;;;;;;;35.42;20.65;;;8.70;99.90;;;;;;5103357;28;20122;-72
2022/04/25 06:44:37;;;;;;;29.75;19.77;;;8.70;99.90;;;;;;5100898;28;20215;-72
2022/04/25 06:47:03;;;;;;;33.03;20.52;;;8.70;99.90;;;;;;5091481;28;20387;-72
2022/04/25 06:49:28;;;;;;;26.80;18.58;;;8.80;99.90;;;;;;5093873;28;20034;-72
2022/04/25 06:51:58;;;;;;;28.98;19.73;;;8.90;99.90;;;;;;5098854;28;20020;-72
2022/04/25 06:54:25;;;;;;;32.75;21.00;;;8.90;99.90;;;;;;5088874;28;20330;-72
2022/04/25 06:56:55;;;;;;;30.08;18.90;;;8.90;99.90;;;;;;5102432;28;20102;-72
2022/04/25 06:59:22;;;;;;;28.77;18.77;;;9.00;99.90;;;;;;5089998;28;20408;-71
2022/04/25 07:01:48;;;;;;;28.15;18.83;;;8.90;99.90;;;;;;5085521;28;20027;-71
2022/04/25 07:04:16;;;;;;;25.52;18.98;;;9.00;99.90;;;;;;5089679;28;20304;-72
2022/04/25 07:06:43;;;;;;;26.52;18.40;;;8.90;99.90;;;;;;5100494;28;20077;-71
2022/04/25 07:09:13;;;;;;;24.80;17.77;;;9.00;99.90;;;;;;5098546;28;20042;-71
2022/04/25 07:11:41;;;;;;;27.63;18.15;;;9.00;99.90;;;;;;5085732;28;20078;-71
2022/04/25 07:14:07;;;;;;;25.50;17.88;;;9.00;99.90;;;;;;5098941;28;20457;-72
2022/04/25 07:16:32;;;;;;;29.58;18.38;;;9.00;99.90;;;;;;5087061;28;20074;-71
2022/04/25 07:18:58;;;;;;;27.05;18.33;;;9.00;99.90;;;;;;5091145;28;20488;-71
2022/04/25 07:29:35;;;;;;;25.08;18.40;;;9.10;99.90;;;;;;5087919;28;20067;-71
2022/04/25 07:32:01;;;;;;;25.92;18.70;;;9.10;99.90;;;;;;5086941;28;20064;-71
2022/04/25 07:34:27;;;;;;;23.92;18.02;;;9.20;99.90;;;;;;5085456;28;20035;-72
2022/04/25 07:36:53;;;;;;;22.35;18.40;;;9.20;99.90;;;;;;5087244;28;20078;-72
2022/04/25 07:39:22;;;;;;;24.15;18.48;;;9.20;99.90;;;;;;5087182;28;20028;-72
2022/04/25 07:41:49;;;;;;;25.88;18.38;;;9.20;99.90;;;;;;5095393;28;20456;-72
2022/04/25 07:44:15;;;;;;;26.58;18.90;;;9.20;99.90;;;;;;5087370;28;20039;-75
2022/04/25 07:46:41;;;;;;;26.75;18.52;;;9.20;99.90;;;;;;5099664;28;20028;-74
2022/04/25 07:49:09;;;;;;;26.95;18.55;;;9.10;99.90;;;;;;5089416;28;20586;-74
2022/04/25 07:51:40;;;;;;;23.27;17.88;;;9.10;99.90;;;;;;5099504;28;20111;-76
2022/04/25 07:54:08;;;;;;;23.98;18.00;;;9.00;99.90;;;;;;5085469;28;20024;-74
2022/04/25 07:56:34;;;;;;;29.75;19.85;;;9.00;99.90;;;;;;5086381;28;20028;-75
2022/04/25 07:59:02;;;;;;;30.13;19.52;;;8.90;99.90;;;;;;5084952;28;20129;-75
2022/04/25 08:01:28;;;;;;;23.98;18.85;;;8.90;99.90;;;;;;5086954;28;20111;-75
2022/04/25 08:03:55;;;;;;;25.95;18.73;;;8.80;99.90;;;;;;5089074;28;20028;-75
2022/04/25 08:06:21;;;;;;;26.17;19.23;;;8.80;99.90;;;;;;5099603;28;20047;-77
2022/04/25 08:08:51;;;;;;;25.30;18.27;;;8.80;99.90;;;;;;5091000;28;20265;-76
2022/04/25 08:11:17;;;;;;;27.55;19.10;;;8.90;99.90;;;;;;5097766;28;20024;-79
2022/04/25 08:19:13;;;;;;;26.00;19.10;;;8.90;99.90;;;;;;5102495;28;20526;-74
2022/04/25 08:21:40;;;;;;;22.98;17.60;;;8.90;99.90;;;;;;5092914;28;20027;-74
2022/04/25 08:24:05;;;;;;;25.80;18.95;;;8.90;99.90;;;;;;5089343;28;20051;-77
2022/04/25 08:26:31;;;;;;;26.83;19.30;;;8.90;99.90;;;;;;5091262;28;20424;-76
2022/04/25 08:28:59;;;;;;;28.27;21.35;;;8.90;99.90;;;;;;5089400;28;20047;-73
2022/04/25 08:31:28;;;;;;;28.90;21.65;;;9.00;99.90;;;;;;5089217;28;20363;-74
2022/04/25 08:33:55;;;;;;;30.13;21.23;;;8.90;99.90;;;;;;5090713;28;20320;-76
2022/04/25 08:36:21;;;;;;;28.17;19.98;;;8.90;99.90;;;;;;5089583;28;20027;-74
2022/04/25 08:38:47;;;;;;;28.33;21.05;;;9.00;99.90;;;;;;5091323;28;20089;-74
2022/04/25 08:41:15;;;;;;;30.52;21.10;;;9.10;99.90;;;;;;5090986;28;20472;-74
2022/04/25 08:43:42;;;;;;;29.17;20.70;;;9.10;99.90;;;;;;5095089;28;20050;-73
2022/04/25 08:46:10;;;;;;;25.52;19.35;;;9.20;99.90;;;;;;5090905;28;20024;-74
2022/04/25 08:48:37;;;;;;;30.17;21.75;;;9.20;99.90;;;;;;5094430;28;20459;-75
2022/04/25 08:51:04;;;;;;;28.05;19.08;;;9.20;99.90;;;;;;5108240;28;20033;-76
2022/04/25 08:53:32;;;;;;;25.35;19.02;;;9.20;99.90;;;;;;5091546;28;20024;-75
2022/04/25 08:56:02;;;;;;;25.15;19.13;;;9.20;99.90;;;;;;5096195;28;20098;-75
2022/04/25 08:58:29;;;;;;;21.65;17.65;;;9.20;99.90;;;;;;5108584;28;20069;-74
2022/04/25 09:00:55;;;;;;;26.35;18.80;;;9.20;99.90;;;;;;5089765;28;20047;-76
2022/04/25 09:03:20;;;;;;;21.08;17.45;;;9.20;99.90;;;;;;5097451;28;20484;-76
2022/04/25 09:05:46;;;;;;;25.58;16.80;;;9.20;99.90;;;;;;5091752;28;20023;-74
2022/04/25 09:08:12;;;;;;;22.83;17.00;;;9.20;99.90;;;;;;5091989;28;20042;-76
2022/04/25 09:10:40;;;;;;;23.13;16.17;;;9.40;99.90;;;;;;5092497;28;20031;-74
2022/04/25 09:13:06;;;;;;;22.50;15.40;;;9.50;99.90;;;;;;5103499;28;20495;-75
2022/04/25 09:15:33;;;;;;;19.33;15.07;;;9.50;99.90;;;;;;5090167;28;20027;-75
2022/04/25 09:17:59;;;;;;;18.42;13.90;;;9.60;99.90;;;;;;5094736;28;20471;-74
2022/04/25 09:20:26;;;;;;;16.70;13.23;;;9.70;99.90;;;;;;5108611;28;20148;-74
2022/04/25 09:22:52;;;;;;;17.90;13.45;;;9.80;99.90;;;;;;5096709;28;20263;-75
2022/04/25 09:25:18;;;;;;;18.63;15.02;;;9.90;99.90;;;;;;5092390;28;20032;-73
2022/04/25 09:27:47;;;;;;;19.52;14.70;;;10.00;99.90;;;;;;5088166;28;20070;-72
2022/04/25 09:30:23;;;;;;;13.70;11.75;;;10.10;99.90;;;;;;5101632;28;20123;-73
2022/04/25 09:32:53;;;;;;;13.23;10.95;;;10.20;99.90;;;;;;5103673;28;20054;-74
2022/04/25 09:35:39;;;;;;;14.55;10.52;;;10.20;99.90;;;;;;5096253;28;20101;-77
2022/04/25 09:38:08;;;;;;;11.30;8.15;;;10.20;99.90;;;;;;5102872;28;20096;-73
2022/04/25 09:40:36;;;;;;;11.35;8.52;;;10.20;99.90;;;;;;5099993;28;20024;-74
2022/04/25 09:43:08;;;;;;;9.88;8.57;;;10.10;99.90;;;;;;5103252;28;20027;-74
2022/04/25 09:45:35;;;;;;;12.68;10.48;;;10.20;99.90;;;;;;5093365;28;20030;-75
2022/04/25 09:48:01;;;;;;;11.48;8.75;;;10.20;99.90;;;;;;5101005;28;20042;-73
2022/04/25 09:50:30;;;;;;;11.00;8.65;;;10.20;99.90;;;;;;5088344;28;20859;-73
2022/04/25 09:52:59;;;;;;;9.32;8.32;;;10.20;99.90;;;;;;5090557;28;20036;-75
2022/04/25 09:55:26;;;;;;;9.63;7.60;;;10.30;99.90;;;;;;5085614;28;20081;-75
2022/04/25 09:57:52;;;;;;;9.95;7.53;;;10.20;99.90;;;;;;5095545;28;20556;-74
2022/04/25 10:00:39;;;;;;;9.48;7.40;;;10.20;99.90;;;;;;5101369;28;20035;-75
2022/04/25 10:03:06;;;;;;;11.63;8.02;;;10.20;99.90;;;;;;5087779;28;20061;-74
2022/04/25 10:05:46;;;;;;;11.25;9.32;;;10.20;99.90;;;;;;5091780;28;20057;-73
2022/04/25 10:08:17;;;;;;;10.88;8.80;;;10.30;99.90;;;;;;5091341;28;20016;-73
2022/04/25 10:10:46;;;;;;;12.25;9.98;;;10.30;99.90;;;;;;5091570;28;20031;-74
2022/04/25 10:13:11;;;;;;;11.98;9.73;;;10.40;99.90;;;;;;5094991;28;20027;-74
2022/04/25 10:15:41;;;;;;;10.05;8.63;;;10.40;99.90;;;;;;5086910;28;20043;-74
2022/04/25 10:18:09;;;;;;;10.57;8.82;;;10.40;99.90;;;;;;5084504;28;20028;-75
2022/04/25 10:20:36;;;;;;;11.05;8.48;;;10.40;99.90;;;;;;5092255;28;20038;-75
2022/04/25 10:23:06;;;;;;;12.88;8.93;;;10.40;99.90;;;;;;5097928;28;20127;-75
2022/04/25 10:25:32;;;;;;;10.52;8.23;;;10.40;99.90;;;;;;5093596;28;20039;-74
2022/04/25 10:28:05;;;;;;;9.30;7.82;;;10.40;99.90;;;;;;5089054;28;20043;-74
2022/04/25 10:30:35;;;;;;;10.30;9.07;;;10.40;99.90;;;;;;5090625;28;20399;-74
2022/04/25 10:33:21;;;;;;;11.25;8.98;;;10.50;99.90;;;;;;5094362;28;20039;-74
2022/04/25 10:35:49;;;;;;;10.82;8.27;;;10.50;99.90;;;;;;5085200;28;20515;-74
2022/04/25 10:44:18;;;;;;;8.98;7.45;;;10.70;99.90;;;;;;5084343;28;20042;-73
2022/04/25 10:47:05;;;;;;;9.00;7.65;;;10.80;99.90;;;;;;5095804;28;20031;-73
2022/04/25 10:49:46;;;;;;;7.80;7.00;;;10.80;99.90;;;;;;5087150;28;20518;-73
2022/04/25 10:52:43;;;;;;;8.85;7.50;;;10.90;99.90;;;;;;5091064;28;20032;-73
2022/04/25 10:55:20;;;;;;;8.02;6.72;;;10.90;99.90;;;;;;5088541;28;20073;-72
2022/04/25 10:58:04;;;;;;;7.30;6.53;;;11.00;99.90;;;;;;5087634;28;20028;-73
2022/04/25 11:00:45;;;;;;;9.02;6.82;;;11.00;99.90;;;;;;5088404;28;20320;-73
2022/04/25 11:03:26;;;;;;;6.55;5.82;;;11.10;99.90;;;;;;5090179;28;20028;-73
2022/04/25 11:05:58;;;;;;;6.65;5.72;;;11.20;99.90;;;;;;5087339;28;20024;-73
2022/04/25 11:08:27;;;;;;;5.22;4.22;;;11.10;99.90;;;;;;5090742;28;20236;-73
2022/04/25 11:11:03;;;;;;;6.88;5.95;;;11.10;99.90;;;;;;5085858;28;20066;-74
2022/04/25 11:13:35;;;;;;;5.90;5.30;;;11.00;99.90;;;;;;5089090;28;20020;-74
2022/04/25 11:16:23;;;;;;;5.55;4.93;;;11.00;99.90;;;;;;5092672;28;20027;-74
2022/04/25 11:19:10;;;;;;;4.93;4.50;;;10.90;99.90;;;;;;5084183;28;20220;-74
2022/04/25 11:21:43;;;;;;;5.20;4.50;;;10.80;99.90;;;;;;5093760;28;20376;-73
2022/04/25 11:24:35;;;;;;;5.22;4.72;;;10.80;99.90;;;;;;5080343;28;20066;-74
2022/04/25 11:27:02;;;;;;;6.95;5.10;;;10.70;99.90;;;;;;5085770;28;20028;-74
2022/04/25 11:29:28;;;;;;;5.82;5.22;;;10.70;99.90;;;;;;5097910;28;20475;-75
2022/04/25 11:32:35;;;;;;;7.10;5.35;;;10.70;99.90;;;;;;5089966;28;20098;-75
2022/04/25 11:35:03;;;;;;;5.97;5.35;;;10.60;99.90;;;;;;5090015;28;20034;-74
2022/04/25 11:37:31;;;;;;;6.82;5.90;;;10.60;99.90;;;;;;5091445;28;20028;-75
2022/04/25 11:40:08;;;;;;;5.95;5.10;;;10.60;99.90;;;;;;5089617;28;20400;-74
2022/04/25 11:42:36;;;;;;;6.80;5.82;;;10.60;99.90;;;;;;5081668;28;20052;-74
2022/04/25 11:45:04;;;;;;;7.90;6.22;;;10.60;99.90;;;;;;5091878;28;20031;-74
2022/04/25 11:47:31;;;;;;;7.68;5.80;;;10.60;99.90;;;;;;5086418;28;20385;-74
2022/04/25 11:50:12;;;;;;;6.70;6.00;;;10.70;99.90;;;;;;5092534;28;20028;-74
2022/04/25 11:52:54;;;;;;;6.60;5.90;;;10.70;99.90;;;;;;5090107;28;20496;-74
2022/04/25 11:55:32;;;;;;;6.78;6.05;;;10.80;99.90;;;;;;5094286;28;20034;-74
2022/04/25 11:57:57;;;;;;;6.65;5.95;;;10.90;99.90;;;;;;5096304;28;20058;-74
2022/04/25 12:00:23;;;;;;;6.80;5.75;;;10.90;99.90;;;;;;5092703;28;20208;-73
2022/04/25 12:02:49;;;;;;;8.15;5.80;;;11.00;99.90;;;;;;5090114;28;20043;-73
2022/04/25 12:05:32;;;;;;;7.90;6.60;;;11.00;99.90;;;;;;5088490;28;20150;-73
2022/04/25 12:16:14;;;;;;;7.25;5.30;;;11.40;99.90;;;;;;5086098;28;20494;-73
2022/04/25 12:18:50;;;;;;;7.15;6.15;;;11.40;99.90;;;;;;5089426;28;20059;-71
2022/04/25 12:21:17;;;;;;;8.15;6.40;;;11.40;99.90;;;;;;5089263;28;20050;-73
2022/04/25 12:23:48;;;;;;;6.35;5.35;;;11.60;99.90;;;;;;5090727;28;20031;-72
2022/04/25 12:26:27;;;;;;;6.80;5.55;;;11.60;99.90;;;;;;5089581;28;20085;-73
2022/04/25 12:28:56;;;;;;;5.55;5.05;;;11.80;99.90;;;;;;5096646;28;20034;-72
2022/04/25 14:23:58;;;;;;;6.30;5.70;;;13.80;99.90;;;;;;4949855;28;20046;-68
2022/04/25 14:26:25;;;;;;;5.65;5.07;;;13.90;99.90;;;;;;4944675;28;20030;-68
2022/04/25 14:28:53;;;;;;;5.20;4.70;;;14.00;99.90;;;;;;4949592;28;20031;-69
2022/04/25 14:31:20;;;;;;;5.25;4.55;;;14.00;99.90;;;;;;4961963;28;20042;-67
2022/04/25 14:33:46;;;;;;;5.60;4.57;;;14.30;99.90;;;;;;4956022;28;20030;-66
2022/04/25 14:36:11;;;;;;;5.38;4.80;;;14.60;99.90;;;;;;4951382;28;20408;-68
2022/04/25 14:38:37;;;;;;;8.32;5.32;;;15.00;99.90;;;;;;4939960;28;20117;-68
2022/04/25 14:41:03;;;;;;;5.45;4.95;;;15.00;99.90;;;;;;4938896;29;20046;-68
2022/04/25 14:43:28;;;;;;;5.18;4.68;;;15.00;99.90;;;;;;4934603;29;20306;-68
2022/04/25 14:45:55;;;;;;;6.22;4.68;;;14.90;99.90;;;;;;4931612;29;20094;-68
2022/04/25 14:48:21;;;;;;;5.40;4.90;;;14.80;99.90;;;;;;4946976;28;20031;-68
2022/04/25 14:56:15;;;;;;;4.72;4.32;;;14.90;99.90;;;;;;4943034;29;20285;-68
2022/04/25 14:58:41;;;;;;;6.03;4.22;;;15.20;99.90;;;;;;4935821;28;20042;-68
2022/04/25 15:01:06;;;;;;;6.43;3.88;;;15.50;99.90;;;;;;4940931;29;20039;-69
2022/04/25 15:03:32;;;;;;;6.10;4.50;;;15.60;99.90;;;;;;4935212;29;20039;-67
2022/04/25 15:05:58;;;;;;;5.03;4.47;;;15.70;99.90;;;;;;4943508;28;20122;-68
2022/04/25 15:08:26;;;;;;;6.68;4.70;;;15.50;99.90;;;;;;4949269;28;20027;-67
2022/04/25 15:10:51;;;;;;;6.70;4.97;;;14.90;99.90;;;;;;4945961;28;20031;-68
2022/04/25 15:13:17;;;;;;;5.25;4.75;;;14.40;99.90;;;;;;4941087;28;20035;-68
2022/04/25 15:15:43;;;;;;;6.70;4.85;;;14.00;99.90;;;;;;4938601;28;20075;-67
2022/04/25 15:18:09;;;;;;;5.20;4.70;;;13.80;99.90;;;;;;4942687;28;20332;-68
2022/04/25 15:20:36;;;;;;;6.70;5.03;;;13.70;99.90;;;;;;4944048;28;20093;-68